Airfield :
LOGIN :

Register | Disclaimer

   EN    FR    IT 

 










Legend :    VFR   Marginal VFR   IFR   Intensive IFR   Very Intensive IFR
Visi :
Ceiling :
>= 8 km
>= 3000ft
5 to 8 km
1000 to 3000 ft
1500m to 5 km
500 to 1000 ft
800 to 1500m
200 to 500 ft
< 800m
< 200 ft
Symbols :   Thunderstorms  Fog  Heavy snow  Heavy precipitations  Wind > 20 kt
SIGMETs :     Misc.  Thunderstorms  Icing  Turbulence  Mountain Waves  Volcanic Ashes






- Airport Elevation : 325 ft


LPCS - Cascais

CURRENT METAR :
  • 271500Z 34026KT 9999 FEW020 20/11 Q1019

EXPIRED METARs :
  • 271430Z 34025G37KT 9999 FEW020 20/11 Q1019
  • 271400Z 34028G38KT 9999 FEW020 20/11 Q1019
  • 271330Z 35026KT 9999 FEW020 20/11 Q1019
  • 271300Z 34023KT 9999 FEW020 20/11 Q1019
  • 271230Z 34021KT 9999 FEW020 20/11 Q1020
  • 271200Z 34020KT 9999 FEW020 20/11 Q1020
  • 271130Z 35020KT 9999 FEW020 20/11 Q1020
  • 271100Z 35020KT 9999 FEW020 20/11 Q1020

TAF TAF LPCS
Valid from the 27 at 15:00 until the 28 at 00:00 UTC


271400Z 2715/2724 35023KT CAVOK
TEMPO 2715/2722 35025G38KT
BECMG 2722/2724 35018KT



MET'MAP, your aeronautical weather chart ! - Copyright ORBIFLY December 2007 - Disclaimer

ORBIFLY MET'MAP TEAM :

Programming & Development : Alexandra Zaïnal
Original concept : Baudouin d'Aumeries
Technical & hardware support : Manuel Goepfert
Assistance : Marc-Olivier Méhu




SOURCES & CREDITS :

   NOAA